createdAt,value
2023-12-20T00:00:36.662Z,95140.00
2023-12-20T00:01:36.636Z,95143.00
2023-12-20T00:02:36.660Z,95139.00
2023-12-20T00:03:42.054Z,95141.00
2023-12-20T00:04:37.860Z,95139.00
2023-12-20T00:05:36.770Z,95137.00
2023-12-20T00:06:36.929Z,95135.00
2023-12-20T00:07:37.042Z,95132.00
2023-12-20T00:08:36.792Z,95131.00
2023-12-20T00:09:36.895Z,95135.00
2023-12-20T00:10:36.904Z,95136.00
2023-12-20T00:11:36.889Z,95132.00
2023-12-20T00:12:36.991Z,95134.00
2023-12-20T00:13:36.948Z,95132.00
2023-12-20T00:14:36.991Z,95130.00
2023-12-20T00:15:37.134Z,95126.00
2023-12-20T00:16:37.097Z,95126.00
2023-12-20T00:17:37.141Z,95126.00
2023-12-20T00:18:37.120Z,95126.00
2023-12-20T00:19:37.306Z,95127.00
2023-12-20T00:20:37.289Z,95128.00
2023-12-20T00:21:37.308Z,95129.00
2023-12-20T00:22:37.212Z,95130.00
2023-12-20T00:23:37.273Z,95130.00
2023-12-20T00:24:37.329Z,95130.00
2023-12-20T00:25:37.279Z,95130.00
2023-12-20T00:26:37.332Z,95128.00
2023-12-20T00:27:37.340Z,95127.00
2023-12-20T00:28:37.352Z,95127.00
2023-12-20T00:29:37.357Z,95126.00
2023-12-20T00:30:37.562Z,95128.00
2023-12-20T00:31:37.447Z,95128.00
2023-12-20T00:32:37.514Z,95126.00
2023-12-20T00:33:37.565Z,95127.00
2023-12-20T00:34:37.503Z,95124.00
2023-12-20T00:35:37.523Z,95124.00
2023-12-20T00:36:37.585Z,95123.00
2023-12-20T00:37:37.616Z,95124.00
2023-12-20T00:38:37.690Z,95126.00
2023-12-20T00:39:37.733Z,95124.00
2023-12-20T00:40:37.791Z,95123.00
2023-12-20T00:41:37.826Z,95122.00
2023-12-20T00:42:37.848Z,95123.00
2023-12-20T00:43:37.898Z,95123.00
2023-12-20T00:44:37.944Z,95123.00
2023-12-20T00:45:38.001Z,95121.00
2023-12-20T00:46:38.101Z,95123.00
2023-12-20T00:47:38.067Z,95125.00
2023-12-20T00:48:38.114Z,95121.00
2023-12-20T00:49:38.200Z,95119.00
2023-12-20T00:50:38.187Z,95118.00
2023-12-20T00:51:38.249Z,95114.00
2023-12-20T00:52:38.272Z,95111.00
2023-12-20T00:53:38.338Z,95113.00
2023-12-20T00:54:38.432Z,95115.00
2023-12-20T00:55:38.413Z,95117.00
2023-12-20T00:56:38.495Z,95120.00
2023-12-20T00:57:38.611Z,95124.00
2023-12-20T00:58:38.559Z,95127.00
2023-12-20T00:59:38.615Z,95127.00
2023-12-20T01:00:40.530Z,95125.00
2023-12-20T01:01:38.753Z,95126.00
2023-12-20T01:02:38.739Z,95126.00
2023-12-20T01:03:38.956Z,95127.00
2023-12-20T01:04:38.829Z,95129.00
2023-12-20T01:05:38.827Z,95131.00
2023-12-20T01:06:38.884Z,95134.00
2023-12-20T01:07:38.836Z,95135.00
2023-12-20T01:08:38.899Z,95134.00
2023-12-20T01:09:38.943Z,95136.00
2023-12-20T01:10:38.936Z,95133.00
2023-12-20T01:11:38.933Z,95134.00
2023-12-20T01:12:39.030Z,95133.00
2023-12-20T01:13:39.012Z,95133.00
2023-12-20T01:14:39.001Z,95134.00
2023-12-20T01:15:39.160Z,95136.00
2023-12-20T01:16:39.082Z,95135.00
2023-12-20T01:17:39.253Z,95134.00
2023-12-20T01:18:39.199Z,95131.00
2023-12-20T01:19:39.223Z,95131.00
2023-12-20T01:20:39.174Z,95132.00
2023-12-20T01:21:39.237Z,95134.00
2023-12-20T01:22:39.216Z,95135.00
2023-12-20T01:23:39.218Z,95136.00
2023-12-20T01:24:39.283Z,95133.00
2023-12-20T01:25:39.298Z,95130.00
2023-12-20T01:26:39.325Z,95129.00
2023-12-20T01:27:39.392Z,95127.00
2023-12-20T01:28:39.356Z,95123.00
2023-12-20T01:29:39.344Z,95124.00
2023-12-20T01:30:39.599Z,95123.00
2023-12-20T01:31:39.484Z,95122.00
2023-12-20T01:32:39.458Z,95121.00
2023-12-20T01:33:39.574Z,95121.00
2023-12-20T01:34:39.616Z,95118.00
2023-12-20T01:35:39.525Z,95119.00
2023-12-20T01:36:39.648Z,95119.00
2023-12-20T01:37:39.646Z,95119.00
2023-12-20T01:38:39.702Z,95116.00
2023-12-20T01:39:39.768Z,95113.00
2023-12-20T01:40:39.821Z,95107.00
2023-12-20T01:41:39.873Z,95101.00
2023-12-20T01:42:39.948Z,95099.00
2023-12-20T01:43:47.137Z,95095.00
2023-12-20T01:44:41.010Z,95096.00
2023-12-20T01:45:40.018Z,95096.00
2023-12-20T01:46:39.988Z,95095.00
2023-12-20T01:47:40.045Z,95092.00
2023-12-20T01:48:40.030Z,95089.00
2023-12-20T01:49:40.092Z,95084.00
2023-12-20T01:50:40.058Z,95085.00
2023-12-20T01:51:40.124Z,95086.00
2023-12-20T01:52:40.059Z,95084.00
2023-12-20T01:53:40.096Z,95083.00
2023-12-20T01:54:40.098Z,95079.00
2023-12-20T01:55:40.136Z,95079.00
2023-12-20T01:56:40.144Z,95079.00
2023-12-20T01:57:40.198Z,95077.00
2023-12-20T01:58:40.175Z,95073.00
2023-12-20T01:59:40.185Z,95070.00
2023-12-20T02:00:40.259Z,95065.00
2023-12-20T02:01:40.251Z,95062.00
2023-12-20T02:02:40.199Z,95062.00
2023-12-20T02:03:40.290Z,95061.00
2023-12-20T02:04:40.315Z,95057.00
2023-12-20T02:05:40.260Z,95051.00
2023-12-20T02:06:40.323Z,95047.00
2023-12-20T02:07:40.380Z,95038.00
2023-12-20T02:08:40.290Z,95036.00
2023-12-20T02:09:40.356Z,95034.00
2023-12-20T02:10:40.426Z,95032.00
2023-12-20T02:11:40.404Z,95031.00
2023-12-20T02:12:40.496Z,95029.00
2023-12-20T02:13:40.485Z,95027.00
2023-12-20T02:14:40.517Z,95023.00
2023-12-20T02:15:40.575Z,95020.00
2023-12-20T02:16:40.564Z,95015.00
2023-12-20T02:17:40.664Z,95013.00
2023-12-20T02:18:40.685Z,95010.00
2023-12-20T02:19:40.790Z,95005.00
2023-12-20T02:20:40.709Z,94999.00
2023-12-20T02:21:40.740Z,94997.00
2023-12-20T02:22:40.769Z,94994.00
2023-12-20T02:23:40.761Z,94994.00
2023-12-20T02:24:40.836Z,94988.00
2023-12-20T02:25:40.837Z,94981.00
2023-12-20T02:26:42.787Z,94977.00
2023-12-20T02:27:40.879Z,94972.00
2023-12-20T02:28:40.864Z,94969.00
2023-12-20T02:29:40.916Z,94970.00
2023-12-20T02:30:40.979Z,94969.00
2023-12-20T02:31:40.915Z,94970.00
2023-12-20T02:32:40.959Z,94970.00
2023-12-20T02:33:40.970Z,94963.00
2023-12-20T02:34:41.044Z,94958.00
2023-12-20T02:35:40.946Z,94954.00
2023-12-20T02:36:40.981Z,94952.00
2023-12-20T02:37:41.042Z,94953.00
2023-12-20T02:38:40.992Z,94954.00
2023-12-20T02:39:41.045Z,94953.00
2023-12-20T02:40:41.045Z,94950.00
2023-12-20T02:41:42.080Z,94950.00
2023-12-20T02:42:41.093Z,94954.00
2023-12-20T02:43:41.086Z,94961.00
2023-12-20T02:44:41.129Z,94960.00
2023-12-20T02:45:41.094Z,94954.00
2023-12-20T02:46:41.156Z,94948.00
2023-12-20T02:47:41.203Z,94946.00
2023-12-20T02:48:41.182Z,94943.00
2023-12-20T02:49:41.246Z,94937.00
2023-12-20T02:50:41.135Z,94933.00
2023-12-20T02:51:41.192Z,94930.00
2023-12-20T02:52:41.195Z,94929.00
2023-12-20T02:53:41.230Z,94928.00
2023-12-20T02:54:41.261Z,94929.00
2023-12-20T02:55:41.197Z,94928.00
2023-12-20T02:56:41.220Z,94927.00
2023-12-20T02:57:41.274Z,94929.00
2023-12-20T02:58:41.233Z,94928.00
2023-12-20T02:59:41.260Z,94928.00
2023-12-20T03:00:41.411Z,94928.00
2023-12-20T03:01:41.389Z,94923.00
2023-12-20T03:02:41.311Z,94921.00
2023-12-20T03:03:41.339Z,94920.00
2023-12-20T03:04:41.429Z,94924.00
2023-12-20T03:05:41.400Z,94926.00
2023-12-20T03:06:41.471Z,94925.00
2023-12-20T03:07:41.381Z,94922.00
2023-12-20T03:08:41.338Z,94923.00
2023-12-20T03:09:53.933Z,94924.00
2023-12-20T03:10:42.428Z,94925.00
2023-12-20T03:11:41.396Z,94920.00
2023-12-20T03:12:41.407Z,94924.00
2023-12-20T03:13:41.433Z,94927.00
2023-12-20T03:14:41.418Z,94932.00
2023-12-20T03:15:41.487Z,94931.00
2023-12-20T03:16:41.449Z,94928.00
2023-12-20T03:17:41.480Z,94929.00
2023-12-20T03:18:41.556Z,94928.00
2023-12-20T03:19:41.505Z,94929.00
2023-12-20T03:20:41.523Z,94928.00
2023-12-20T03:21:41.535Z,94926.00
2023-12-20T03:22:41.522Z,94923.00
2023-12-20T03:23:41.503Z,94924.00
2023-12-20T03:24:41.529Z,94920.00
2023-12-20T03:25:41.544Z,94922.00
2023-12-20T03:26:41.575Z,94924.00
2023-12-20T03:27:41.602Z,94922.00
2023-12-20T03:28:41.578Z,94925.00
2023-12-20T03:29:41.581Z,94926.00
2023-12-20T03:30:41.639Z,94926.00
2023-12-20T03:31:41.614Z,94924.00
2023-12-20T03:33:21.424Z,94923.00
2023-12-20T03:34:21.565Z,94922.00
2023-12-20T03:35:21.522Z,94924.00
2023-12-20T03:36:21.618Z,94925.00
2023-12-20T03:37:21.832Z,94930.00
2023-12-20T03:38:21.831Z,94932.00
2023-12-20T03:39:21.933Z,94930.00
2023-12-20T03:40:22.110Z,94927.00
2023-12-20T03:41:22.125Z,94925.00
2023-12-20T03:42:22.193Z,94927.00
2023-12-20T03:43:22.352Z,94929.00
2023-12-20T03:44:22.398Z,94930.00
2023-12-20T03:45:22.506Z,94932.00
2023-12-20T03:46:22.691Z,94937.00
2023-12-20T03:47:22.726Z,94941.00
2023-12-20T03:48:22.838Z,94938.00
2023-12-20T03:49:22.931Z,94939.00
2023-12-20T03:50:23.052Z,94939.00
2023-12-20T03:51:23.098Z,94945.00
2023-12-20T03:52:23.220Z,94952.00
2023-12-20T03:53:23.277Z,94952.00
2023-12-20T03:54:23.373Z,94952.00
2023-12-20T03:55:23.496Z,94947.00
2023-12-20T03:56:23.564Z,94948.00
2023-12-20T03:57:23.615Z,94951.00
2023-12-20T03:58:23.784Z,94950.00
2023-12-20T03:59:23.807Z,94948.00
2023-12-20T04:00:23.901Z,94946.00
2023-12-20T04:01:24.023Z,94942.00
2023-12-20T04:02:24.083Z,94939.00
2023-12-20T04:03:24.177Z,94939.00
2023-12-20T04:04:24.374Z,94941.00
2023-12-20T04:05:24.480Z,94943.00
2023-12-20T04:06:24.650Z,94945.00
2023-12-20T04:07:24.637Z,94944.00
2023-12-20T04:08:24.640Z,94946.00
2023-12-20T04:09:24.708Z,94944.00
2023-12-20T04:10:24.826Z,94940.00
2023-12-20T04:11:24.925Z,94937.00
2023-12-20T04:12:25.004Z,94935.00
2023-12-20T04:13:25.108Z,94932.00
2023-12-20T04:14:25.175Z,94927.00
2023-12-20T04:15:25.240Z,94926.00
2023-12-20T04:16:25.432Z,94922.00
2023-12-20T04:17:25.453Z,94925.00
2023-12-20T04:18:25.606Z,94923.00
2023-12-20T04:19:25.690Z,94924.00
2023-12-20T04:20:25.700Z,94924.00
2023-12-20T04:21:25.795Z,94926.00
2023-12-20T04:22:25.915Z,94925.00
2023-12-20T04:23:25.989Z,94926.00
2023-12-20T04:24:26.020Z,94926.00
2023-12-20T04:25:26.175Z,94921.00
2023-12-20T04:26:26.200Z,94919.00
2023-12-20T04:27:26.329Z,94919.00
2023-12-20T04:28:26.438Z,94921.00
2023-12-20T04:29:26.476Z,94923.00
2023-12-20T04:30:26.627Z,94925.00
2023-12-20T04:31:33.838Z,94925.00
2023-12-20T04:32:33.859Z,94924.00
2023-12-20T04:33:33.849Z,94922.00
2023-12-20T04:34:33.894Z,94917.00
2023-12-20T04:35:33.847Z,94916.00
2023-12-20T04:36:33.860Z,94918.00
2023-12-20T04:37:33.851Z,94926.00
2023-12-20T04:38:33.816Z,94932.00
2023-12-20T04:39:33.822Z,94935.00
2023-12-20T04:40:33.962Z,94939.00
2023-12-20T04:41:33.897Z,94942.00
2023-12-20T04:42:33.937Z,94945.00
2023-12-20T04:43:33.921Z,94946.00
2023-12-20T04:44:33.882Z,94947.00
2023-12-20T04:45:33.928Z,94947.00
2023-12-20T04:46:33.902Z,94949.00
2023-12-20T04:47:33.952Z,94951.00
2023-12-20T04:48:33.996Z,94950.00
2023-12-20T04:49:34.003Z,94952.00
2023-12-20T04:50:33.931Z,94951.00
2023-12-20T04:51:33.912Z,94954.00
2023-12-20T04:52:33.912Z,94956.00
2023-12-20T04:53:33.951Z,94956.00
2023-12-20T04:54:33.946Z,94957.00
2023-12-20T04:55:34.083Z,94956.00
2023-12-20T04:56:33.969Z,94958.00
2023-12-20T04:57:33.965Z,94962.00
2023-12-20T04:58:34.102Z,94964.00
2023-12-20T04:59:33.989Z,94969.00
2023-12-20T05:00:34.129Z,94967.00
2023-12-20T05:01:34.177Z,94965.00
2023-12-20T05:02:34.081Z,94964.00
2023-12-20T05:03:34.077Z,94965.00
2023-12-20T05:04:34.202Z,94963.00
2023-12-20T05:05:34.288Z,94964.00
2023-12-20T05:06:34.177Z,94963.00
2023-12-20T05:07:34.338Z,94964.00
2023-12-20T05:08:34.157Z,94966.00
2023-12-20T05:09:34.158Z,94966.00
2023-12-20T05:10:34.146Z,94965.00
2023-12-20T05:11:34.173Z,94968.00
2023-12-20T05:12:34.188Z,94969.00
2023-12-20T05:13:41.808Z,94971.00
2023-12-20T05:14:35.263Z,94971.00
2023-12-20T05:15:34.249Z,94973.00
2023-12-20T05:16:34.263Z,94973.00
2023-12-20T05:17:34.276Z,94973.00
2023-12-20T05:18:34.299Z,94973.00
2023-12-20T05:19:34.404Z,94973.00
2023-12-20T05:20:34.350Z,94974.00
2023-12-20T05:21:34.295Z,94977.00
2023-12-20T05:22:34.320Z,94979.00
2023-12-20T05:23:34.323Z,94981.00
2023-12-20T05:24:34.345Z,94983.00
2023-12-20T05:25:34.431Z,94987.00
2023-12-20T05:26:34.335Z,94990.00
2023-12-20T05:27:34.370Z,94996.00
2023-12-20T05:28:34.443Z,95000.00
2023-12-20T05:29:34.405Z,95005.00
2023-12-20T05:30:34.402Z,95002.00
2023-12-20T05:31:34.467Z,95003.00
2023-12-20T05:32:34.460Z,95000.00
2023-12-20T05:33:34.480Z,94998.00
2023-12-20T05:34:34.609Z,95000.00
2023-12-20T05:35:34.509Z,95006.00
2023-12-20T05:36:34.431Z,95012.00
2023-12-20T05:37:34.482Z,95013.00
2023-12-20T05:38:34.526Z,95017.00
2023-12-20T05:39:34.499Z,95023.00
2023-12-20T05:40:34.508Z,95028.00
2023-12-20T05:41:34.467Z,95029.00
2023-12-20T05:42:34.521Z,95030.00
2023-12-20T05:43:34.531Z,95034.00
2023-12-20T05:44:34.543Z,95035.00
2023-12-20T05:45:34.536Z,95043.00
2023-12-20T05:46:34.574Z,95047.00
2023-12-20T05:47:34.623Z,95053.00
2023-12-20T05:48:34.615Z,95058.00
2023-12-20T05:49:34.697Z,95061.00
2023-12-20T05:50:34.681Z,95062.00
2023-12-20T05:51:34.686Z,95064.00
2023-12-20T05:52:34.704Z,95067.00
2023-12-20T05:53:34.700Z,95069.00
2023-12-20T05:54:34.751Z,95069.00
2023-12-20T05:55:34.839Z,95072.00
2023-12-20T05:56:34.769Z,95068.00
2023-12-20T05:57:34.782Z,95061.00
2023-12-20T05:58:34.881Z,95057.00
2023-12-20T05:59:34.825Z,95054.00
2023-12-20T06:00:34.936Z,95053.00
2023-12-20T06:01:57.592Z,95050.00
2023-12-20T06:02:34.964Z,95052.00
2023-12-20T06:03:34.970Z,95053.00
2023-12-20T06:04:35.170Z,95057.00
2023-12-20T06:05:35.143Z,95060.00
2023-12-20T06:06:35.073Z,95067.00
2023-12-20T06:07:35.134Z,95073.00
2023-12-20T06:08:35.075Z,95071.00
2023-12-20T06:09:35.068Z,95067.00
2023-12-20T06:10:35.096Z,95064.00
2023-12-20T06:11:35.117Z,95065.00
2023-12-20T06:12:35.135Z,95065.00
2023-12-20T06:13:35.155Z,95061.00
2023-12-20T06:14:35.119Z,95061.00
2023-12-20T06:15:35.163Z,95058.00
2023-12-20T06:16:35.177Z,95060.00
2023-12-20T06:17:35.220Z,95062.00
2023-12-20T06:18:35.311Z,95066.00
2023-12-20T06:19:35.365Z,95065.00
2023-12-20T06:20:35.226Z,95064.00
2023-12-20T06:21:35.252Z,95064.00
2023-12-20T06:22:35.306Z,95068.00
2023-12-20T06:23:35.271Z,95073.00
2023-12-20T06:24:35.255Z,95075.00
2023-12-20T06:25:35.304Z,95078.00
2023-12-20T06:26:35.284Z,95079.00
2023-12-20T06:27:35.290Z,95079.00
2023-12-20T06:28:35.328Z,95078.00
2023-12-20T06:29:35.308Z,95076.00
2023-12-20T06:30:35.367Z,95076.00
2023-12-20T06:31:35.508Z,95076.00
2023-12-20T06:32:35.354Z,95082.00
2023-12-20T06:33:35.333Z,95086.00
2023-12-20T06:34:35.507Z,95092.00
2023-12-20T06:35:37.201Z,95094.00
2023-12-20T06:36:36.021Z,95091.00
2023-12-20T06:37:35.610Z,95087.00
2023-12-20T06:38:35.706Z,95085.00
2023-12-20T06:39:35.788Z,95084.00
2023-12-20T06:40:35.921Z,95080.00
2023-12-20T06:41:36.035Z,95084.00
2023-12-20T06:42:43.145Z,95083.00
2023-12-20T06:43:46.226Z,95083.00
2023-12-20T06:44:37.154Z,95081.00
2023-12-20T06:45:36.177Z,95082.00
2023-12-20T06:46:59.055Z,95085.00
2023-12-20T06:47:36.183Z,95084.00
2023-12-20T06:48:36.237Z,95086.00
2023-12-20T06:49:36.287Z,95086.00
2023-12-20T06:50:36.211Z,95084.00
2023-12-20T06:51:36.564Z,95082.00
2023-12-20T06:52:36.292Z,95080.00
2023-12-20T06:53:36.263Z,95076.00
2023-12-20T06:54:36.292Z,95071.00
2023-12-20T06:55:36.317Z,95069.00
2023-12-20T06:56:36.354Z,95071.00
2023-12-20T06:57:36.367Z,95069.00
2023-12-20T06:58:36.450Z,95073.00
2023-12-20T06:59:36.438Z,95073.00
2023-12-20T07:00:36.588Z,95075.00
2023-12-20T07:01:36.541Z,95078.00
2023-12-20T07:02:36.605Z,95079.00
2023-12-20T07:03:36.611Z,95082.00
2023-12-20T07:04:36.724Z,95083.00
2023-12-20T07:05:36.789Z,95081.00
2023-12-20T07:06:37.055Z,95077.00
2023-12-20T07:07:37.632Z,95077.00
2023-12-20T07:08:36.887Z,95076.00
2023-12-20T07:09:36.847Z,95078.00
2023-12-20T07:10:36.876Z,95079.00
2023-12-20T07:11:37.073Z,95078.00
2023-12-20T07:12:36.948Z,95078.00
2023-12-20T07:13:37.082Z,95077.00
2023-12-20T07:14:37.020Z,95081.00
2023-12-20T07:15:36.988Z,95080.00
2023-12-20T07:16:37.037Z,95082.00
2023-12-20T07:17:37.028Z,95086.00
2023-12-20T07:18:37.081Z,95088.00
2023-12-20T07:19:37.131Z,95093.00
2023-12-20T07:20:37.032Z,95097.00
2023-12-20T07:21:37.021Z,95101.00
2023-12-20T07:22:37.072Z,95105.00
2023-12-20T07:23:37.062Z,95111.00
2023-12-20T07:24:37.379Z,95112.00
2023-12-20T07:25:37.187Z,95116.00
2023-12-20T07:26:37.170Z,95117.00
2023-12-20T07:27:37.577Z,95117.00
2023-12-20T07:28:37.336Z,95121.00
2023-12-20T07:29:37.320Z,95128.00
2023-12-20T07:30:37.458Z,95135.00
2023-12-20T07:31:37.503Z,95137.00
2023-12-20T07:32:38.137Z,95136.00
2023-12-20T07:33:39.318Z,95137.00
2023-12-20T07:34:38.285Z,95137.00
2023-12-20T07:35:38.150Z,95138.00
2023-12-20T07:36:38.035Z,95143.00
2023-12-20T07:37:38.112Z,95145.00
2023-12-20T07:38:38.071Z,95146.00
2023-12-20T07:39:38.224Z,95150.00
2023-12-20T07:40:38.268Z,95152.00
2023-12-20T07:41:38.305Z,95152.00
2023-12-20T07:42:38.557Z,95151.00
2023-12-20T07:43:38.425Z,95151.00
2023-12-20T07:44:38.523Z,95155.00
2023-12-20T07:45:38.599Z,95158.00
2023-12-20T07:46:38.743Z,95158.00
2023-12-20T07:47:39.096Z,95157.00
2023-12-20T07:48:38.811Z,95159.00
2023-12-20T07:49:38.945Z,95161.00
2023-12-20T07:50:38.906Z,95160.00
2023-12-20T07:51:38.971Z,95163.00
2023-12-20T07:52:39.070Z,95164.00
2023-12-20T07:53:39.102Z,95161.00
2023-12-20T07:54:39.108Z,95162.00
2023-12-20T07:55:39.074Z,95158.00
2023-12-20T07:56:39.098Z,95159.00
2023-12-20T07:57:39.154Z,95159.00
2023-12-20T07:58:49.650Z,95158.00
2023-12-20T07:59:40.355Z,95158.00
2023-12-20T08:00:39.234Z,95158.00
2023-12-20T08:01:39.281Z,95162.00
2023-12-20T08:02:39.266Z,95160.00
2023-12-20T08:03:39.350Z,95158.00
2023-12-20T08:04:39.303Z,95153.00
2023-12-20T08:05:39.287Z,95146.00
2023-12-20T08:06:39.346Z,95146.00
2023-12-20T08:07:39.471Z,95149.00
2023-12-20T08:08:39.413Z,95151.00
2023-12-20T08:09:39.477Z,95152.00
2023-12-20T08:10:39.536Z,95153.00
2023-12-20T08:11:39.593Z,95153.00
2023-12-20T08:12:40.109Z,95147.00
2023-12-20T08:13:39.712Z,95143.00
2023-12-20T08:14:39.758Z,95138.00
2023-12-20T08:15:39.794Z,95132.00
2023-12-20T08:16:39.851Z,95132.00
2023-12-20T08:17:39.902Z,95132.00
2023-12-20T08:18:39.921Z,95134.00
2023-12-20T08:19:40.072Z,95133.00
2023-12-20T08:20:41.218Z,95131.00
2023-12-20T08:21:40.058Z,95128.00
2023-12-20T08:22:40.087Z,95125.00
2023-12-20T08:23:40.109Z,95121.00
2023-12-20T08:24:40.203Z,95123.00
2023-12-20T08:25:40.171Z,95124.00
2023-12-20T08:26:40.215Z,95124.00
2023-12-20T08:27:40.262Z,95123.00
2023-12-20T08:28:40.261Z,95128.00
2023-12-20T08:29:40.343Z,95129.00
2023-12-20T08:30:40.392Z,95131.00
2023-12-20T08:31:40.398Z,95137.00
2023-12-20T08:32:40.623Z,95138.00
2023-12-20T08:33:40.527Z,95141.00
2023-12-20T08:34:40.525Z,95139.00
2023-12-20T08:35:40.584Z,95143.00
2023-12-20T08:36:40.628Z,95135.00
2023-12-20T08:37:41.100Z,95142.00
2023-12-20T08:38:40.740Z,95144.00
2023-12-20T08:39:43.389Z,95144.00
2023-12-20T08:40:40.956Z,95152.00
2023-12-20T08:41:41.029Z,95156.00
2023-12-20T08:42:41.078Z,95155.00
2023-12-20T08:43:41.036Z,95161.00
2023-12-20T08:44:42.583Z,95165.00
2023-12-20T08:45:41.096Z,95166.00
2023-12-20T08:46:41.108Z,95170.00
2023-12-20T08:47:41.677Z,95171.00
2023-12-20T08:48:41.378Z,95168.00
2023-12-20T08:49:41.288Z,95165.00
2023-12-20T08:50:41.418Z,95162.00
2023-12-20T08:51:41.239Z,95162.00
2023-12-20T08:52:41.236Z,95165.00
2023-12-20T08:53:41.250Z,95166.00
2023-12-20T08:54:42.661Z,95168.00
2023-12-20T08:55:41.282Z,95166.00
2023-12-20T08:56:41.327Z,95164.00
2023-12-20T08:57:41.337Z,95162.00
2023-12-20T08:58:41.362Z,95159.00
2023-12-20T08:59:41.380Z,95159.00
2023-12-20T09:00:41.394Z,95162.00
2023-12-20T09:01:41.429Z,95171.00
2023-12-20T09:02:41.436Z,95171.00
2023-12-20T09:03:41.475Z,95172.00
2023-12-20T09:04:41.560Z,95176.00
2023-12-20T09:05:41.446Z,95177.00
2023-12-20T09:06:41.495Z,95179.00
2023-12-20T09:07:41.450Z,95179.00
2023-12-20T09:08:41.443Z,95180.00
2023-12-20T09:09:41.468Z,95179.00
2023-12-20T09:10:41.537Z,95179.00
2023-12-20T09:11:41.598Z,95180.00
2023-12-20T09:12:41.656Z,95182.00
2023-12-20T09:13:41.786Z,95183.00
2023-12-20T09:14:41.805Z,95182.00
2023-12-20T09:15:41.909Z,95184.00
2023-12-20T09:16:41.932Z,95183.00
2023-12-20T09:17:42.039Z,95185.00
2023-12-20T09:18:42.044Z,95186.00
2023-12-20T09:19:42.185Z,95185.00
2023-12-20T09:20:44.172Z,95186.00
2023-12-20T09:21:42.399Z,95189.00
2023-12-20T09:22:42.446Z,95188.00
2023-12-20T09:23:42.455Z,95189.00
2023-12-20T09:24:42.581Z,95190.00
2023-12-20T09:25:42.518Z,95188.00
2023-12-20T09:26:42.582Z,95188.00
2023-12-20T09:27:42.793Z,95191.00
2023-12-20T09:28:43.181Z,95194.00
2023-12-20T09:29:42.661Z,95194.00
2023-12-20T09:30:42.944Z,95195.00
2023-12-20T09:31:42.851Z,95194.00
2023-12-20T09:32:43.964Z,95190.00
2023-12-20T09:33:43.075Z,95188.00
2023-12-20T09:34:43.201Z,95191.00
2023-12-20T09:35:43.202Z,95190.00
2023-12-20T09:36:43.038Z,95188.00
2023-12-20T09:37:43.351Z,95191.00
2023-12-20T09:38:45.688Z,95187.00
2023-12-20T09:39:43.282Z,95187.00
2023-12-20T09:40:43.355Z,95185.00
2023-12-20T09:41:43.403Z,95185.00
2023-12-20T09:42:43.528Z,95182.00
2023-12-20T09:43:43.646Z,95181.00
2023-12-20T09:44:45.966Z,95182.00
2023-12-20T09:45:43.868Z,95181.00
2023-12-20T09:46:43.886Z,95182.00
2023-12-20T09:47:44.405Z,95180.00
2023-12-20T09:48:44.178Z,95180.00
2023-12-20T09:49:44.327Z,95177.00
2023-12-20T09:50:47.390Z,95170.00
2023-12-20T09:51:45.483Z,95170.00
2023-12-20T09:52:44.540Z,95168.00
2023-12-20T09:53:44.633Z,95172.00
2023-12-20T09:54:44.817Z,95172.00
2023-12-20T09:55:44.824Z,95169.00
2023-12-20T09:56:46.625Z,95162.00
2023-12-20T09:57:45.410Z,95162.00
2023-12-20T09:58:45.164Z,95158.00
2023-12-20T09:59:45.157Z,95154.00
2023-12-20T10:00:45.296Z,95149.00
2023-12-20T10:01:45.462Z,95141.00
2023-12-20T10:02:45.312Z,95144.00
2023-12-20T10:03:45.560Z,95147.00
2023-12-20T10:04:45.474Z,95151.00
2023-12-20T10:05:45.703Z,95148.00
2023-12-20T10:06:45.635Z,95153.00
2023-12-20T10:07:46.046Z,95155.00
2023-12-20T10:08:45.624Z,95152.00
2023-12-20T10:09:45.694Z,95149.00
2023-12-20T10:10:48.384Z,95144.00
2023-12-20T10:11:45.670Z,95142.00
2023-12-20T10:12:47.781Z,95146.00
2023-12-20T10:13:45.789Z,95146.00
2023-12-20T10:14:45.846Z,95146.00
2023-12-20T10:15:45.859Z,95142.00
2023-12-20T10:16:45.851Z,95142.00
2023-12-20T10:17:45.925Z,95143.00
2023-12-20T10:18:46.159Z,95143.00
2023-12-20T10:19:46.027Z,95145.00
2023-12-20T10:20:45.916Z,95142.00
2023-12-20T10:21:45.981Z,95139.00
2023-12-20T10:22:45.948Z,95137.00
2023-12-20T10:23:46.128Z,95137.00
2023-12-20T10:24:45.992Z,95141.00
2023-12-20T10:25:45.996Z,95141.00
2023-12-20T10:26:46.060Z,95144.00
2023-12-20T10:27:46.113Z,95141.00
2023-12-20T10:28:46.081Z,95142.00
2023-12-20T10:29:46.069Z,95139.00
2023-12-20T10:30:46.269Z,95137.00
2023-12-20T10:31:46.240Z,95135.00
2023-12-20T10:32:46.241Z,95132.00
2023-12-20T10:33:46.218Z,95133.00
2023-12-20T10:34:46.220Z,95131.00
2023-12-20T10:35:47.997Z,95130.00
2023-12-20T10:36:46.187Z,95122.00
2023-12-20T10:37:46.405Z,95119.00
2023-12-20T10:38:46.239Z,95114.00
2023-12-20T10:39:46.224Z,95113.00
2023-12-20T10:40:46.322Z,95109.00
2023-12-20T10:41:46.265Z,95105.00
2023-12-20T10:42:46.334Z,95104.00
2023-12-20T10:43:46.723Z,95106.00
2023-12-20T10:44:46.313Z,95105.00
2023-12-20T10:45:46.343Z,95101.00
2023-12-20T10:46:46.373Z,95100.00
2023-12-20T10:47:46.544Z,95098.00
2023-12-20T10:48:46.585Z,95098.00
2023-12-20T10:49:46.533Z,95100.00
2023-12-20T10:50:46.484Z,95099.00
2023-12-20T10:51:46.531Z,95100.00
2023-12-20T10:52:46.585Z,95096.00
2023-12-20T10:53:48.547Z,95097.00
2023-12-20T10:54:46.786Z,95097.00
2023-12-20T10:55:46.753Z,95095.00
2023-12-20T10:56:46.706Z,95086.00
2023-12-20T10:57:47.028Z,95084.00
2023-12-20T10:58:46.753Z,95080.00
2023-12-20T10:59:48.808Z,95076.00
2023-12-20T11:00:46.895Z,95077.00
2023-12-20T11:01:46.828Z,95078.00
2023-12-20T11:02:46.809Z,95082.00
2023-12-20T11:03:46.916Z,95082.00
2023-12-20T11:04:46.886Z,95083.00
2023-12-20T11:05:49.790Z,95081.00
2023-12-20T11:06:47.050Z,95083.00
2023-12-20T11:07:47.107Z,95082.00
2023-12-20T11:08:47.158Z,95082.00
2023-12-20T11:09:46.931Z,95084.00
2023-12-20T11:10:46.869Z,95085.00
2023-12-20T11:11:46.879Z,95083.00
2023-12-20T11:12:47.049Z,95083.00
2023-12-20T11:13:46.907Z,95083.00
2023-12-20T11:14:47.206Z,95083.00
2023-12-20T11:15:46.873Z,95080.00
2023-12-20T11:16:52.597Z,95079.00
2023-12-20T11:17:51.045Z,95076.00
2023-12-20T11:18:47.113Z,95073.00
2023-12-20T11:19:47.232Z,95073.00
2023-12-20T11:20:47.208Z,95070.00
2023-12-20T11:21:47.382Z,95071.00
2023-12-20T11:22:47.592Z,95073.00
2023-12-20T11:23:47.386Z,95076.00
2023-12-20T11:24:47.766Z,95077.00
2023-12-20T11:25:47.492Z,95077.00
2023-12-20T11:26:47.590Z,95077.00
2023-12-20T11:27:50.614Z,95076.00
2023-12-20T11:28:47.715Z,95074.00
2023-12-20T11:29:47.620Z,95074.00
2023-12-20T11:30:47.773Z,95075.00
2023-12-20T11:31:47.641Z,95072.00
2023-12-20T11:32:47.623Z,95075.00
2023-12-20T11:33:47.616Z,95078.00
2023-12-20T11:34:47.717Z,95075.00
2023-12-20T11:35:47.581Z,95074.00
2023-12-20T11:36:47.715Z,95070.00
2023-12-20T11:37:47.858Z,95064.00
2023-12-20T11:38:47.598Z,95063.00
2023-12-20T11:39:47.748Z,95066.00
2023-12-20T11:40:47.582Z,95064.00
2023-12-20T11:41:47.596Z,95057.00
2023-12-20T11:42:47.617Z,95054.00
2023-12-20T11:43:47.716Z,95049.00
2023-12-20T11:44:47.674Z,95046.00
2023-12-20T11:45:47.658Z,95047.00